Time;durP1;ratioP1;P1;durP2;ratioP2;P2;SDS_P1;SDS_P2;PMS_P1;PMS_P2;Temp;Humidity;BMP_temperature;BMP_pressure;BME280_temperature;BME280_humidity;BME280_pressure;Samples;Min_cycle;Max_cycle;Signal;HPM_P1;HPM_P2
2022/05/13 00:00:11;;;;;;;8.40;5.97;;;12.00;1.00;;;;;;5115028;28;20176;-70
2022/05/13 00:02:38;;;;;;;10.00;6.20;;;12.00;1.00;;;;;;5096383;28;20240;-70
2022/05/13 00:05:05;;;;;;;9.07;6.13;;;11.90;1.00;;;;;;5114502;28;20180;-70
2022/05/13 00:07:31;;;;;;;10.97;6.40;;;11.80;1.00;;;;;;5115180;28;20280;-70
2022/05/13 00:09:57;;;;;;;7.03;6.20;;;11.70;1.00;;;;;;5095701;28;20570;-70
2022/05/13 00:12:31;;;;;;;8.77;6.43;;;11.60;1.00;;;;;;5114213;28;20557;-71
2022/05/13 00:14:58;;;;;;;7.57;5.43;;;11.50;1.00;;;;;;5114409;28;20560;-71
2022/05/13 00:17:24;;;;;;;9.17;5.87;;;11.40;1.00;;;;;;5096365;28;20257;-71
2022/05/13 00:19:50;;;;;;;9.73;5.87;;;11.40;1.00;;;;;;5114199;28;20173;-70
2022/05/13 00:22:16;;;;;;;7.63;5.57;;;11.40;1.00;;;;;;5114074;28;20204;-71
2022/05/13 00:24:42;;;;;;;7.37;5.67;;;11.40;1.00;;;;;;5113655;28;20180;-70
2022/05/13 00:27:08;;;;;;;11.10;6.83;;;11.40;1.00;;;;;;5114072;28;20193;-70
2022/05/13 00:29:34;;;;;;;8.63;6.03;;;11.40;1.00;;;;;;5095562;28;20749;-70
2022/05/13 00:32:00;;;;;;;6.75;5.70;;;11.30;1.00;;;;;;5095660;28;20241;-70
2022/05/13 00:34:26;;;;;;;9.57;5.90;;;11.20;1.00;;;;;;5117352;28;20181;-71
2022/05/13 00:36:52;;;;;;;8.93;5.70;;;11.20;1.00;;;;;;5099303;28;20200;-71
2022/05/13 00:39:19;;;;;;;8.03;5.60;;;11.20;1.00;;;;;;5117513;28;20597;-71
2022/05/13 00:41:46;;;;;;;8.20;6.03;;;11.20;1.00;;;;;;5098937;28;20668;-70
2022/05/13 00:44:12;;;;;;;9.70;6.10;;;11.20;1.00;;;;;;5117627;28;20200;-71
2022/05/13 00:46:38;;;;;;;9.33;5.93;;;11.20;1.00;;;;;;5117255;28;20203;-70
2022/05/13 00:49:09;;;;;;;10.33;6.07;;;11.20;1.00;;;;;;5099068;28;20289;-71
2022/05/13 00:51:41;;;;;;;8.37;6.17;;;11.20;1.00;;;;;;5099140;28;20180;-71
2022/05/13 00:54:11;;;;;;;6.37;5.47;;;11.20;1.00;;;;;;5117664;28;20223;-71
2022/05/13 00:56:42;;;;;;;9.80;5.83;;;11.20;1.00;;;;;;5117121;28;20685;-71
2022/05/13 00:59:10;;;;;;;9.77;5.50;;;11.20;1.00;;;;;;5117759;28;20165;-71
2022/05/13 01:01:35;;;;;;;11.37;6.77;;;11.20;1.00;;;;;;5099061;28;20291;-71
2022/05/13 01:04:04;;;;;;;11.20;5.73;;;11.20;1.00;;;;;;5117861;28;20255;-70
2022/05/13 01:06:32;;;;;;;8.27;6.07;;;11.10;1.00;;;;;;5117158;28;20245;-70
2022/05/13 01:08:58;;;;;;;8.67;6.33;;;11.10;1.00;;;;;;5116948;28;20184;-71
2022/05/13 01:11:27;;;;;;;8.37;5.80;;;11.10;1.00;;;;;;5116850;28;20183;-70
2022/05/13 01:14:04;;;;;;;7.07;5.87;;;11.00;1.00;;;;;;5116704;28;20196;-71
2022/05/13 01:18:04;;;;;;;8.13;5.60;;;11.00;1.00;;;;;;5116828;28;20669;-70
2022/05/13 01:19:15;;;;;;;9.63;5.93;;;11.00;1.00;;;;;;5116492;28;20180;-70
2022/05/13 01:21:41;;;;;;;7.63;5.70;;;10.90;1.00;;;;;;5117272;28;20211;-70
2022/05/13 01:24:07;;;;;;;8.23;5.63;;;10.90;1.00;;;;;;5116668;28;20189;-70
2022/05/13 01:26:35;;;;;;;9.53;5.80;;;10.80;1.00;;;;;;5097922;28;20192;-71
2022/05/13 01:29:02;;;;;;;7.73;6.17;;;10.80;1.00;;;;;;5116684;28;20173;-70
2022/05/13 01:31:34;;;;;;;9.60;6.10;;;10.60;1.00;;;;;;5116408;28;20179;-71
2022/05/13 01:34:02;;;;;;;8.97;6.10;;;10.70;1.00;;;;;;5116406;28;20177;-71
2022/05/13 01:36:29;;;;;;;10.07;6.03;;;10.60;1.00;;;;;;5116510;28;20192;-70
2022/05/13 01:38:55;;;;;;;7.70;5.70;;;10.60;1.00;;;;;;5097946;28;20192;-71
2022/05/13 01:41:22;;;;;;;9.57;5.80;;;10.40;1.00;;;;;;5116102;28;20207;-71
2022/05/13 01:43:49;;;;;;;11.13;6.43;;;10.40;1.00;;;;;;5097640;28;20641;-71
2022/05/13 01:46:16;;;;;;;7.73;6.07;;;10.30;1.00;;;;;;5115540;28;20590;-71
2022/05/13 01:48:42;;;;;;;9.10;6.20;;;10.30;1.00;;;;;;5116645;28;20196;-70
2022/05/13 01:51:08;;;;;;;11.70;6.10;;;10.20;1.00;;;;;;5116188;28;20230;-71
2022/05/13 01:53:35;;;;;;;9.53;5.90;;;10.20;77.60;;;;;;5116106;28;20181;-71
2022/05/13 01:56:01;;;;;;;7.43;5.87;;;10.20;99.90;;;;;;5097578;28;20208;-70
2022/05/13 01:58:26;;;;;;;10.50;6.10;;;10.20;99.90;;;;;;5115971;28;20259;-71
2022/05/13 02:00:54;;;;;;;9.73;6.23;;;10.20;99.90;;;;;;5097667;28;20653;-71
2022/05/13 02:06:05;;;;;;;7.17;5.87;;;10.30;99.90;;;;;;5116110;28;20306;-70
2022/05/13 02:08:32;;;;;;;10.33;5.83;;;10.20;99.90;;;;;;5115691;28;20218;-70
2022/05/13 02:10:58;;;;;;;9.83;6.57;;;10.10;99.90;;;;;;5115454;28;20180;-70
2022/05/13 02:13:24;;;;;;;9.80;6.47;;;10.10;99.90;;;;;;5097396;28;20192;-71
2022/05/13 02:15:52;;;;;;;10.63;6.53;;;10.10;99.90;;;;;;5115675;28;20196;-70
2022/05/13 02:18:19;;;;;;;8.60;6.27;;;10.10;99.90;;;;;;5115774;28;20569;-70
2022/05/13 02:20:45;;;;;;;12.23;6.97;;;10.10;99.90;;;;;;5115538;28;20168;-69
2022/05/13 02:23:10;;;;;;;10.23;6.23;;;10.00;99.90;;;;;;5115412;28;20206;-71
2022/05/13 02:25:36;;;;;;;8.17;6.40;;;9.90;99.90;;;;;;5096901;28;20173;-70
2022/05/13 02:28:03;;;;;;;10.10;6.87;;;9.80;99.90;;;;;;5115524;28;20745;-70
2022/05/13 02:30:29;;;;;;;7.97;6.30;;;9.80;99.90;;;;;;5115460;28;20229;-70
2022/05/13 02:32:56;;;;;;;10.27;7.07;;;9.80;99.90;;;;;;5115785;28;20181;-70
2022/05/13 02:35:22;;;;;;;10.83;6.40;;;9.80;99.90;;;;;;5115380;28;20199;-71
2022/05/13 02:37:49;;;;;;;10.03;6.97;;;9.80;99.90;;;;;;5115105;28;20208;-70
2022/05/13 02:40:16;;;;;;;10.47;7.07;;;9.80;99.90;;;;;;5115058;28;20225;-71
2022/05/13 02:42:42;;;;;;;9.90;7.47;;;9.80;99.90;;;;;;5115329;28;20261;-70
2022/05/13 02:45:09;;;;;;;9.17;6.70;;;9.70;99.90;;;;;;5115416;28;20184;-70
2022/05/13 02:47:36;;;;;;;9.10;6.60;;;9.60;99.90;;;;;;5115150;28;20195;-71
2022/05/13 02:50:18;;;;;;;8.37;6.13;;;9.60;99.90;;;;;;5115256;28;20176;-71
2022/05/13 02:52:48;;;;;;;10.63;6.37;;;9.60;99.90;;;;;;5115095;28;20164;-71
2022/05/13 02:55:14;;;;;;;9.10;6.60;;;9.60;99.90;;;;;;5114662;28;20176;-70
2022/05/13 02:57:40;;;;;;;12.23;7.07;;;9.70;99.90;;;;;;5096851;28;20212;-70
2022/05/13 03:00:08;;;;;;;9.07;6.53;;;9.70;99.90;;;;;;5115184;28;20187;-71
2022/05/13 03:02:33;;;;;;;10.50;6.43;;;9.70;99.90;;;;;;5096563;28;20212;-70
2022/05/13 03:04:59;;;;;;;9.43;6.27;;;9.70;99.90;;;;;;5096797;28;20176;-70
2022/05/13 03:07:25;;;;;;;12.20;6.90;;;9.70;99.90;;;;;;5115617;28;20593;-70
2022/05/13 03:09:51;;;;;;;12.00;6.43;;;9.70;99.90;;;;;;5114627;28;20204;-71
2022/05/13 03:12:17;;;;;;;8.97;6.03;;;9.70;99.90;;;;;;5114627;28;20212;-70
2022/05/13 03:14:43;;;;;;;9.33;6.50;;;9.70;99.90;;;;;;5114536;28;20192;-70
2022/05/13 03:17:09;;;;;;;8.60;6.97;;;9.70;99.90;;;;;;5096427;28;20206;-70
2022/05/13 03:19:36;;;;;;;9.33;6.20;;;9.70;99.90;;;;;;5114452;28;20180;-71
2022/05/13 03:22:03;;;;;;;9.40;6.00;;;9.80;99.90;;;;;;5114804;28;20744;-70
2022/05/13 03:24:29;;;;;;;8.00;6.47;;;9.80;99.90;;;;;;5114684;28;20593;-71
2022/05/13 03:26:56;;;;;;;11.77;7.03;;;9.80;99.90;;;;;;5114274;28;20200;-70
2022/05/13 03:29:22;;;;;;;10.03;7.00;;;9.80;99.90;;;;;;5114378;28;20180;-70
2022/05/13 03:31:47;;;;;;;11.13;7.17;;;9.70;99.90;;;;;;5096582;28;20187;-70
2022/05/13 03:34:13;;;;;;;11.57;7.30;;;9.70;99.90;;;;;;5115006;28;20233;-70
2022/05/13 03:36:39;;;;;;;8.10;6.67;;;9.60;99.90;;;;;;5114384;28;20228;-70
2022/05/13 03:39:05;;;;;;;7.57;6.60;;;9.50;99.90;;;;;;5095953;28;20188;-70
2022/05/13 03:41:31;;;;;;;9.50;6.70;;;9.40;99.90;;;;;;5114137;28;20549;-70
2022/05/13 03:43:57;;;;;;;10.97;6.70;;;9.30;99.90;;;;;;5114213;28;20164;-70
2022/05/13 03:46:22;;;;;;;8.73;6.37;;;9.20;99.90;;;;;;5114117;28;20226;-70
2022/05/13 03:48:48;;;;;;;9.13;6.80;;;9.20;99.90;;;;;;5096057;28;20603;-70
2022/05/13 03:51:15;;;;;;;9.07;6.47;;;9.20;99.90;;;;;;5114093;28;20212;-70
2022/05/13 03:53:41;;;;;;;8.00;6.50;;;9.20;99.90;;;;;;5114098;28;20173;-70
2022/05/13 03:56:07;;;;;;;8.73;6.40;;;9.20;99.90;;;;;;5113905;28;20200;-70
2022/05/13 03:58:33;;;;;;;8.27;6.70;;;9.20;99.90;;;;;;5113935;28;20218;-70
2022/05/13 04:01:00;;;;;;;9.47;7.20;;;9.20;99.90;;;;;;5114207;28;20649;-71
2022/05/13 04:03:26;;;;;;;12.57;6.80;;;9.20;99.90;;;;;;5095852;28;20251;-70
2022/05/13 04:11:20;;;;;;;10.27;6.70;;;9.00;99.90;;;;;;5118291;28;20199;-70
2022/05/13 04:16:30;;;;;;;8.10;6.13;;;9.00;99.90;;;;;;5118136;28;20234;-70
2022/05/13 04:18:57;;;;;;;9.00;6.27;;;9.10;99.90;;;;;;5118756;28;20574;-70
2022/05/13 04:21:26;;;;;;;8.67;6.33;;;9.20;99.90;;;;;;5118006;28;20203;-70
2022/05/13 04:23:54;;;;;;;11.90;6.60;;;9.20;99.90;;;;;;5118017;28;20172;-70
2022/05/13 04:26:20;;;;;;;9.07;6.87;;;9.30;99.90;;;;;;5117829;28;20664;-70
2022/05/13 04:28:48;;;;;;;10.30;6.27;;;9.40;99.90;;;;;;5117948;28;20195;-70
2022/05/13 04:31:16;;;;;;;9.17;5.43;;;9.30;99.90;;;;;;5117740;28;20660;-70
2022/05/13 04:33:43;;;;;;;7.93;5.90;;;9.40;99.90;;;;;;5117929;28;20181;-70
2022/05/13 04:36:10;;;;;;;10.53;5.90;;;9.40;99.90;;;;;;5117630;28;20275;-70
2022/05/13 04:38:36;;;;;;;15.20;6.37;;;9.50;99.90;;;;;;5117555;28;20185;-70
2022/05/13 04:43:48;;;;;;;10.70;6.23;;;9.50;99.90;;;;;;5118526;28;20169;-69
2022/05/13 04:46:14;;;;;;;9.60;6.93;;;9.60;99.90;;;;;;5099014;28;20196;-68
2022/05/13 04:48:40;;;;;;;10.57;7.23;;;9.60;99.90;;;;;;5118188;28;20685;-68
2022/05/13 04:51:08;;;;;;;10.77;6.50;;;9.50;99.90;;;;;;5117789;28;20285;-68
2022/05/13 04:53:36;;;;;;;8.53;6.23;;;9.60;99.90;;;;;;5099723;28;20267;-68
2022/05/13 04:56:04;;;;;;;9.53;6.60;;;9.50;99.90;;;;;;5099117;28;20256;-69
2022/05/13 04:58:29;;;;;;;10.27;6.63;;;9.60;99.90;;;;;;5117871;28;20172;-68
2022/05/13 05:00:56;;;;;;;10.03;5.87;;;9.60;99.90;;;;;;5099283;28;20180;-68
2022/05/13 05:03:27;;;;;;;11.40;6.10;;;9.60;99.90;;;;;;5117389;28;20607;-68
2022/05/13 05:05:52;;;;;;;11.63;6.37;;;9.70;99.90;;;;;;5117500;28;20287;-68
2022/05/13 05:08:18;;;;;;;10.63;5.60;;;9.80;99.90;;;;;;5117295;28;20204;-68
2022/05/13 05:10:45;;;;;;;12.00;5.73;;;10.00;99.90;;;;;;5098608;28;20541;-68
2022/05/13 05:13:17;;;;;;;9.70;5.03;;;10.10;99.90;;;;;;5117000;28;20196;-68
2022/05/13 05:15:45;;;;;;;13.57;5.73;;;10.10;99.90;;;;;;5117391;28;20171;-70
2022/05/13 05:18:11;;;;;;;6.27;4.80;;;10.20;99.90;;;;;;5098888;28;20187;-70
2022/05/13 05:20:37;;;;;;;9.13;5.03;;;10.30;99.90;;;;;;5117298;28;20181;-70
2022/05/13 05:23:03;;;;;;;4.90;4.40;;;10.40;99.90;;;;;;5098652;28;20204;-70
2022/05/13 05:25:29;;;;;;;7.90;5.03;;;10.50;99.90;;;;;;5098849;28;20675;-70
2022/05/13 05:27:56;;;;;;;10.27;5.10;;;10.60;99.90;;;;;;5116929;28;20322;-70
2022/05/13 05:30:23;;;;;;;12.23;5.07;;;10.60;99.90;;;;;;5098830;28;20522;-70
2022/05/13 05:32:49;;;;;;;13.17;5.33;;;10.60;99.90;;;;;;5117012;28;20233;-70
2022/05/13 05:35:17;;;;;;;9.33;4.80;;;10.70;99.90;;;;;;5099732;28;20240;-70
2022/05/13 05:37:43;;;;;;;10.93;5.50;;;10.80;99.90;;;;;;5098856;28;20301;-70
2022/05/13 05:40:10;;;;;;;10.83;5.60;;;10.90;99.90;;;;;;5117067;28;20632;-70
2022/05/13 05:42:37;;;;;;;12.57;5.77;;;11.00;99.90;;;;;;5116363;28;20566;-70
2022/05/13 05:45:04;;;;;;;14.03;6.00;;;11.10;99.90;;;;;;5098109;28;20180;-70
2022/05/13 05:47:30;;;;;;;9.83;5.57;;;11.10;99.90;;;;;;5116169;28;20198;-71
2022/05/13 05:49:58;;;;;;;11.30;5.53;;;11.10;99.90;;;;;;5116605;28;20599;-70
2022/05/13 05:52:24;;;;;;;9.33;5.40;;;11.10;99.90;;;;;;5116358;28;20690;-70
2022/05/13 05:57:33;;;;;;;12.67;5.77;;;11.20;99.90;;;;;;5116219;28;20683;-70
2022/05/13 06:00:00;;;;;;;13.37;5.70;;;11.30;99.90;;;;;;5098077;28;20180;-70
2022/05/13 06:02:27;;;;;;;10.77;5.60;;;11.40;99.90;;;;;;5097888;28;20249;-70
2022/05/13 06:04:52;;;;;;;16.80;6.00;;;11.50;99.90;;;;;;5116495;28;20251;-70
2022/05/13 06:07:18;;;;;;;10.77;4.97;;;11.60;99.90;;;;;;5116298;28;20235;-70
2022/05/13 06:09:44;;;;;;;13.23;5.40;;;11.80;99.90;;;;;;5116844;28;20181;-66
2022/05/13 06:12:12;;;;;;;13.63;5.57;;;12.00;99.90;;;;;;5099316;28;20648;-72
2022/05/13 06:14:39;;;;;;;9.93;5.23;;;12.00;99.90;;;;;;5098850;28;20192;-70
2022/05/13 06:17:05;;;;;;;18.73;5.60;;;12.10;99.90;;;;;;5116722;28;20192;-69
2022/05/13 06:19:31;;;;;;;9.68;4.95;;;12.10;99.90;;;;;;5116282;28;20198;-69
2022/05/13 06:21:57;;;;;;;11.17;5.57;;;12.10;99.90;;;;;;5116008;28;20238;-70
2022/05/13 06:24:23;;;;;;;16.03;5.70;;;12.10;99.90;;;;;;5115901;28;20160;-68
2022/05/13 06:26:50;;;;;;;17.37;5.63;;;12.20;99.90;;;;;;5097378;28;20200;-68
2022/05/13 06:29:18;;;;;;;11.10;5.53;;;12.20;99.90;;;;;;5097581;28;20539;-70
2022/05/13 06:31:44;;;;;;;12.57;4.67;;;12.20;99.90;;;;;;5115201;28;20168;-70
2022/05/13 06:34:10;;;;;;;11.07;5.23;;;12.20;99.90;;;;;;5097214;28;20229;-69
2022/05/13 06:36:37;;;;;;;10.37;5.20;;;12.10;99.90;;;;;;5097537;28;20623;-70
2022/05/13 06:39:05;;;;;;;13.93;5.07;;;12.10;99.90;;;;;;5097323;28;20185;-71
2022/05/13 06:41:31;;;;;;;10.43;4.90;;;12.20;99.90;;;;;;5115415;28;20219;-69
2022/05/13 06:43:57;;;;;;;10.43;4.63;;;12.20;99.90;;;;;;5115531;28;20636;-70
2022/05/13 06:46:23;;;;;;;12.77;5.03;;;12.30;99.90;;;;;;5115817;28;20668;-70
2022/05/13 06:48:49;;;;;;;8.43;4.73;;;12.30;99.90;;;;;;5097698;28;20176;-69
2022/05/13 06:51:16;;;;;;;11.57;4.70;;;12.30;99.90;;;;;;5115586;28;20640;-70
2022/05/13 06:53:42;;;;;;;12.87;5.23;;;12.30;99.90;;;;;;5115669;28;20218;-69
2022/05/13 06:56:08;;;;;;;10.07;4.90;;;12.20;99.90;;;;;;5097080;28;20196;-69
2022/05/13 06:58:35;;;;;;;12.67;5.07;;;12.20;99.90;;;;;;5115186;28;20690;-69
2022/05/13 07:01:02;;;;;;;12.80;5.20;;;12.40;99.90;;;;;;5097110;28;20259;-69
2022/05/13 07:03:28;;;;;;;9.70;4.80;;;12.50;99.90;;;;;;5100824;28;20187;-70
2022/05/13 07:05:53;;;;;;;10.97;4.57;;;12.70;99.90;;;;;;5115718;28;20264;-69
2022/05/13 07:08:19;;;;;;;9.17;4.63;;;12.80;99.90;;;;;;5114842;28;20757;-70
2022/05/13 07:10:45;;;;;;;10.63;4.37;;;13.00;99.90;;;;;;5096387;28;20226;-69
2022/05/13 07:13:14;;;;;;;10.80;4.40;;;13.10;99.90;;;;;;5114484;28;20271;-70
2022/05/13 07:15:41;;;;;;;11.87;4.23;;;13.10;99.90;;;;;;5096442;28;20188;-70
2022/05/13 07:18:07;;;;;;;15.13;5.40;;;13.30;99.90;;;;;;5096296;28;20288;-70
2022/05/13 07:20:33;;;;;;;10.33;4.17;;;13.40;99.90;;;;;;5096236;28;20223;-70
2022/05/13 07:22:58;;;;;;;11.13;4.50;;;13.50;99.90;;;;;;5096265;28;20291;-70
2022/05/13 07:25:26;;;;;;;9.30;4.10;;;13.60;99.90;;;;;;5096140;28;20664;-70
2022/05/13 07:27:51;;;;;;;7.50;4.03;;;13.70;99.90;;;;;;5114050;28;20329;-70
2022/05/13 07:30:18;;;;;;;7.20;4.47;;;13.80;99.90;;;;;;5114973;28;20223;-70
2022/05/13 07:32:44;;;;;;;8.63;4.10;;;13.90;99.90;;;;;;5114495;28;20172;-70
2022/05/13 07:35:10;;;;;;;7.72;4.28;;;14.00;99.90;;;;;;5114223;28;20175;-70
2022/05/13 07:37:36;;;;;;;10.40;4.45;;;14.10;99.90;;;;;;5114096;28;20196;-70
2022/05/13 07:42:48;;;;;;;8.55;4.00;;;14.20;99.90;;;;;;5113287;28;20324;-70
2022/05/13 07:45:14;;;;;;;10.00;4.05;;;14.40;99.90;;;;;;5114241;28;20195;-70
2022/05/13 07:47:42;;;;;;;8.85;3.97;;;14.60;99.90;;;;;;5113928;28;20196;-70
2022/05/13 07:50:10;;;;;;;7.90;4.07;;;14.80;99.90;;;;;;5095871;28;20169;-70
2022/05/13 07:52:36;;;;;;;6.55;3.65;;;15.00;99.90;;;;;;5114085;28;20183;-67
2022/05/13 07:55:03;;;;;;;10.00;4.40;;;15.20;99.90;;;;;;5095640;28;20227;-67
2022/05/13 07:57:28;;;;;;;8.32;3.70;;;15.20;99.90;;;;;;5113576;28;20196;-67
2022/05/13 08:02:38;;;;;;;8.90;3.65;;;15.40;99.90;;;;;;5113921;28;20226;-67
2022/05/13 08:05:05;;;;;;;11.25;4.30;;;15.30;99.90;;;;;;5114085;28;20157;-66
2022/05/13 08:07:30;;;;;;;11.82;4.47;;;15.30;99.90;;;;;;5113597;28;20233;-67
2022/05/13 08:09:56;;;;;;;8.02;3.72;;;15.40;99.90;;;;;;5095640;28;20176;-67
2022/05/13 08:12:22;;;;;;;6.57;3.30;;;15.50;99.90;;;;;;5113667;28;20660;-67
2022/05/13 08:14:47;;;;;;;6.82;3.55;;;15.60;99.90;;;;;;5095402;28;20199;-66
2022/05/13 08:17:13;;;;;;;8.27;3.13;;;15.40;99.90;;;;;;5095380;28;20760;-67
2022/05/13 08:19:39;;;;;;;9.18;3.38;;;15.40;99.90;;;;;;5113785;28;20180;-66
2022/05/13 08:22:05;;;;;;;6.30;3.40;;;15.40;99.90;;;;;;5114263;28;20204;-67
2022/05/13 08:24:31;;;;;;;10.13;3.70;;;15.30;99.90;;;;;;5113999;28;20165;-67
2022/05/13 08:26:57;;;;;;;7.63;3.72;;;15.30;99.90;;;;;;5113559;28;20193;-67
2022/05/13 08:29:23;;;;;;;7.40;3.20;;;15.30;99.90;;;;;;5113596;28;20176;-67
2022/05/13 08:31:50;;;;;;;7.57;3.38;;;15.30;99.90;;;;;;5113611;28;20191;-67
2022/05/13 08:34:16;;;;;;;5.30;3.22;;;15.50;99.90;;;;;;5095957;28;20545;-66
2022/05/13 08:36:43;;;;;;;7.40;2.80;;;15.60;99.90;;;;;;5114114;28;20231;-67
2022/05/13 08:39:10;;;;;;;5.82;2.65;;;15.60;99.90;;;;;;5095160;28;20186;-66
2022/05/13 08:41:48;;;;;;;7.32;3.40;;;15.60;99.90;;;;;;5094904;28;20215;-67
2022/05/13 08:44:15;;;;;;;7.60;3.22;;;15.80;99.90;;;;;;5095150;28;20169;-67
2022/05/13 08:47:14;;;;;;;8.80;2.80;;;15.90;99.90;;;;;;5113529;28;20594;-67
2022/05/13 08:50:00;;;;;;;6.72;3.10;;;16.00;99.90;;;;;;5094207;28;20180;-67
2022/05/13 08:55:32;;;;;;;5.22;2.40;;;16.00;99.90;;;;;;5117188;28;20174;-67
2022/05/13 08:58:01;;;;;;;3.85;2.58;;;16.00;99.90;;;;;;5116924;28;20187;-66
2022/05/13 09:00:47;;;;;;;5.82;2.90;;;16.10;99.90;;;;;;5117346;28;20661;-67
2022/05/13 09:03:37;;;;;;;8.00;2.80;;;16.10;99.90;;;;;;5117571;28;20631;-67
2022/05/13 09:06:06;;;;;;;3.65;2.30;;;16.10;99.90;;;;;;5116926;28;20211;-67
2022/05/13 09:08:34;;;;;;;5.00;2.70;;;16.40;99.90;;;;;;5117036;28;20201;-67
2022/05/13 09:11:25;;;;;;;4.72;2.50;;;16.60;99.90;;;;;;5098436;28;20199;-67
2022/05/13 09:14:12;;;;;;;6.32;2.72;;;16.70;99.90;;;;;;5116765;28;20645;-67
2022/05/13 09:17:07;;;;;;;4.07;2.63;;;16.70;99.90;;;;;;5116674;28;20192;-67
2022/05/13 09:19:57;;;;;;;7.63;2.70;;;16.80;99.90;;;;;;5098600;28;20509;-67
2022/05/13 09:22:23;;;;;;;5.95;2.80;;;16.60;99.90;;;;;;5117236;28;20591;-67
2022/05/13 09:24:48;;;;;;;11.85;2.90;;;16.60;99.90;;;;;;5116456;28;20192;-67
2022/05/13 09:27:14;;;;;;;6.82;2.80;;;16.80;99.90;;;;;;5116190;28;20192;-67
2022/05/13 09:29:44;;;;;;;7.05;2.88;;;17.20;99.90;;;;;;5098196;28;20172;-68
2022/05/13 09:32:26;;;;;;;4.18;2.30;;;17.30;99.90;;;;;;5116696;28;20161;-67
2022/05/13 09:35:01;;;;;;;9.90;2.65;;;17.40;99.90;;;;;;5098332;28;20172;-67
2022/05/13 09:37:34;;;;;;;6.30;2.47;;;17.10;99.90;;;;;;5116274;28;20826;-67
2022/05/13 09:40:11;;;;;;;3.58;2.40;;;16.50;99.90;;;;;;5116706;28;20530;-67
2022/05/13 09:42:43;;;;;;;5.00;2.25;;;16.40;99.90;;;;;;5116385;28;20199;-67
2022/05/13 09:45:31;;;;;;;3.25;2.55;;;16.50;99.90;;;;;;5116628;28;20175;-67
2022/05/13 09:48:01;;;;;;;5.30;2.20;;;16.90;99.90;;;;;;5116192;28;20223;-67
2022/05/13 09:50:34;;;;;;;3.53;2.40;;;17.20;99.90;;;;;;5116036;28;20725;-68
2022/05/13 09:53:24;;;;;;;5.00;2.35;;;17.30;99.90;;;;;;5097817;28;20169;-67
2022/05/13 09:55:55;;;;;;;6.32;2.33;;;17.10;99.90;;;;;;5116978;28;20183;-71
2022/05/13 09:58:27;;;;;;;3.70;2.35;;;17.00;99.90;;;;;;5116697;28;20156;-71
2022/05/13 10:01:06;;;;;;;6.97;2.55;;;17.20;99.90;;;;;;5098040;28;20277;-72
2022/05/13 10:03:37;;;;;;;4.22;2.40;;;17.40;99.90;;;;;;5116557;28;20184;-71
2022/05/13 10:06:05;;;;;;;4.97;2.05;;;17.30;99.90;;;;;;5097314;28;20209;-70
2022/05/13 10:08:31;;;;;;;4.88;2.40;;;17.40;99.90;;;;;;5101569;28;20203;-70
2022/05/13 10:13:59;;;;;;;5.53;2.25;;;17.40;99.90;;;;;;5120694;28;20248;-71
2022/05/13 10:16:39;;;;;;;5.72;2.63;;;17.30;99.90;;;;;;5120272;28;20196;-71
2022/05/13 10:19:09;;;;;;;4.32;2.20;;;17.30;99.90;;;;;;5121873;28;20575;-72
2022/05/13 10:21:44;;;;;;;7.03;2.35;;;17.00;99.90;;;;;;5100642;28;20204;-72
2022/05/13 10:24:45;;;;;;;7.35;2.42;;;16.90;99.90;;;;;;5097710;28;20203;-71
2022/05/13 10:27:21;;;;;;;3.58;2.20;;;16.80;99.90;;;;;;5101692;28;20223;-71
2022/05/13 10:29:51;;;;;;;4.30;2.40;;;16.80;99.90;;;;;;5097670;28;20175;-70
2022/05/13 10:32:24;;;;;;;7.38;2.78;;;16.70;99.90;;;;;;5115565;28;20221;-68
2022/05/13 10:34:54;;;;;;;8.35;2.45;;;16.70;99.90;;;;;;5115557;28;20168;-68
2022/05/13 10:37:39;;;;;;;4.13;2.22;;;16.70;99.90;;;;;;5115262;28;20192;-68
2022/05/13 10:40:11;;;;;;;3.83;2.33;;;16.80;99.90;;;;;;5115503;28;20243;-68
2022/05/13 10:42:44;;;;;;;5.45;2.10;;;16.70;99.90;;;;;;5114997;28;20199;-68
2022/05/13 10:45:26;;;;;;;3.78;2.25;;;16.70;99.90;;;;;;5115084;28;20164;-67
2022/05/13 10:47:56;;;;;;;7.93;2.33;;;16.80;99.90;;;;;;5114907;28;20188;-69
2022/05/13 10:50:33;;;;;;;2.97;2.40;;;16.70;99.90;;;;;;5096684;28;20160;-67
2022/05/13 10:53:10;;;;;;;3.70;2.30;;;16.60;99.90;;;;;;5115236;28;20167;-68
2022/05/13 10:55:51;;;;;;;2.25;2.08;;;16.50;99.90;;;;;;5115460;28;20172;-68
2022/05/13 10:58:35;;;;;;;4.88;2.40;;;16.50;99.90;;;;;;5096373;28;20648;-68
2022/05/13 11:01:38;;;;;;;6.55;2.80;;;16.50;99.90;;;;;;5115323;28;20624;-68
2022/05/13 11:04:23;;;;;;;5.13;2.47;;;16.50;99.90;;;;;;5115151;28;20161;-68
2022/05/13 11:06:57;;;;;;;3.63;2.65;;;16.50;99.90;;;;;;5096691;28;20207;-70
2022/05/13 11:09:37;;;;;;;4.15;2.65;;;16.40;99.90;;;;;;5114927;28;20191;-70
2022/05/13 11:12:27;;;;;;;5.38;2.78;;;16.60;99.90;;;;;;5114756;28;20164;-71
2022/05/13 11:15:07;;;;;;;4.43;3.08;;;16.60;99.90;;;;;;5096621;28;20176;-71
2022/05/13 11:17:57;;;;;;;8.30;2.95;;;16.70;99.90;;;;;;5114849;28;20213;-71
2022/05/13 11:20:49;;;;;;;4.28;3.03;;;16.70;99.90;;;;;;5114803;28;20173;-71
2022/05/13 11:23:17;;;;;;;5.28;3.20;;;16.70;99.90;;;;;;5115163;28;20641;-70
2022/05/13 11:26:05;;;;;;;3.63;2.60;;;17.10;99.90;;;;;;5096867;28;20179;-70
2022/05/13 11:28:56;;;;;;;7.00;2.90;;;17.20;99.90;;;;;;5115227;28;20640;-71
2022/05/13 11:31:53;;;;;;;5.47;3.00;;;17.20;99.90;;;;;;5096773;28;20540;-70
2022/05/13 11:34:42;;;;;;;6.00;3.10;;;17.40;99.90;;;;;;5114985;28;20165;-71
2022/05/13 11:37:15;;;;;;;6.72;3.08;;;17.40;99.90;;;;;;5049928;28;20236;-70
2022/05/13 11:40:13;;;;;;;3.22;2.33;;;17.30;99.90;;;;;;5114575;28;20652;-71
2022/05/13 11:45:53;;;;;;;6.40;2.70;;;17.10;99.90;;;;;;5114603;28;20628;-72
2022/05/13 11:48:30;;;;;;;6.38;3.90;;;16.90;99.90;;;;;;5114546;28;20655;-72
2022/05/13 11:51:06;;;;;;;6.40;3.30;;;16.80;99.90;;;;;;5114545;28;20163;-70
2022/05/13 11:53:44;;;;;;;4.43;2.70;;;16.90;99.90;;;;;;5114842;28;20180;-70
2022/05/13 11:56:26;;;;;;;5.13;2.78;;;17.10;99.90;;;;;;5114533;28;20245;-70
2022/05/13 11:59:03;;;;;;;4.50;2.80;;;17.10;99.90;;;;;;5096191;28;20176;-70
2022/05/13 12:01:35;;;;;;;5.20;2.95;;;17.20;99.90;;;;;;5097841;28;20218;-70
2022/05/13 12:04:12;;;;;;;7.30;2.90;;;17.30;99.90;;;;;;5097207;28;20585;-69
2022/05/13 12:06:50;;;;;;;6.30;3.22;;;17.60;99.90;;;;;;5114654;28;20196;-71
2022/05/13 12:09:34;;;;;;;6.88;2.85;;;18.20;99.90;;;;;;5114345;28;20227;-70
2022/05/13 12:12:12;;;;;;;7.78;2.85;;;18.50;99.90;;;;;;5113894;28;20251;-71
2022/05/13 12:14:51;;;;;;;5.13;3.25;;;19.00;99.90;;;;;;5096036;28;20192;-70
2022/05/13 12:17:28;;;;;;;5.90;3.55;;;19.20;99.90;;;;;;5095960;28;20200;-70
2022/05/13 12:20:02;;;;;;;7.97;3.35;;;19.00;99.90;;;;;;5115709;28;20540;-70
2022/05/13 12:22:31;;;;;;;8.00;3.47;;;18.80;99.90;;;;;;5115147;28;20189;-70
2022/05/13 12:24:59;;;;;;;8.18;3.40;;;18.60;99.90;;;;;;5114582;28;20172;-70
2022/05/13 12:27:34;;;;;;;15.45;4.65;;;18.70;99.90;;;;;;5113974;28;20195;-70
2022/05/13 12:30:28;;;;;;;8.70;3.42;;;18.20;99.90;;;;;;5098846;28;20648;-70
2022/05/13 12:32:54;;;;;;;5.97;3.03;;;18.20;99.90;;;;;;5118252;28;20165;-70
2022/05/13 12:38:23;;;;;;;9.20;3.03;;;18.60;99.90;;;;;;5118294;28;20215;-70
2022/05/13 12:41:16;;;;;;;6.88;3.47;;;18.50;99.90;;;;;;5117807;28;20665;-70
2022/05/13 12:44:14;;;;;;;4.18;3.45;;;18.10;99.90;;;;;;5098540;28;20241;-70
2022/05/13 12:46:49;;;;;;;10.73;4.10;;;18.10;99.90;;;;;;5044820;28;20707;-70
2022/05/13 12:49:46;;;;;;;8.52;4.28;;;18.30;99.90;;;;;;5117708;28;20640;-70
2022/05/13 12:52:17;;;;;;;5.60;3.67;;;18.30;99.90;;;;;;5078430;28;20184;-70
2022/05/13 12:54:47;;;;;;;6.75;3.60;;;18.60;99.90;;;;;;5117646;28;20164;-67
2022/05/13 12:57:22;;;;;;;5.90;3.50;;;18.40;99.90;;;;;;5117516;28;20558;-69
2022/05/13 12:59:52;;;;;;;6.93;3.67;;;18.30;99.90;;;;;;5117636;28;20190;-68
2022/05/13 13:02:22;;;;;;;5.53;3.05;;;18.70;99.90;;;;;;5098880;28;20196;-67
2022/05/13 13:05:00;;;;;;;4.70;2.80;;;18.50;99.90;;;;;;5117365;28;20168;-69
2022/05/13 13:07:29;;;;;;;5.82;2.72;;;18.60;99.90;;;;;;5098908;28;20299;-69
2022/05/13 13:09:57;;;;;;;5.18;3.55;;;18.50;99.90;;;;;;5117421;28;20649;-67
2022/05/13 13:12:42;;;;;;;7.28;4.20;;;18.70;99.90;;;;;;5099209;28;20179;-66
2022/05/13 13:15:40;;;;;;;9.10;4.38;;;19.00;99.90;;;;;;5116963;28;20168;-67
2022/05/13 13:18:11;;;;;;;8.63;3.70;;;18.80;99.90;;;;;;5117451;28;20163;-68
2022/05/13 13:20:55;;;;;;;8.93;3.72;;;18.60;99.90;;;;;;5116828;28;20177;-68
2022/05/13 13:23:22;;;;;;;5.50;3.30;;;19.00;99.90;;;;;;5116668;28;20180;-68
2022/05/13 13:25:51;;;;;;;7.75;3.90;;;19.20;99.90;;;;;;5098972;28;20176;-70
2022/05/13 13:28:28;;;;;;;5.90;3.33;;;19.80;99.90;;;;;;5098711;28;20172;-68
2022/05/13 13:30:58;;;;;;;5.97;3.42;;;20.10;99.90;;;;;;5098885;28;20198;-70
2022/05/13 13:33:27;;;;;;;8.93;4.03;;;20.20;99.90;;;;;;5117443;28;20156;-70
2022/05/13 13:35:53;;;;;;;8.38;3.60;;;20.20;99.90;;;;;;5098349;28;20194;-70
2022/05/13 13:38:19;;;;;;;7.13;3.63;;;20.10;99.90;;;;;;5116675;28;20749;-72